sensor_id;sensor_type;location;lat;lon;timestamp;pressure;altitude;pressure_sealevel;temperature;humidity
46778;BME280;32536;47.128;8.746;2022-08-21T00:00:14;91920.56;;;19.92;58.27
46778;BME280;32536;47.128;8.746;2022-08-21T00:02:52;91915.44;;;19.85;58.18
46778;BME280;32536;47.128;8.746;2022-08-21T00:05:22;91910.47;;;19.83;58.44
46778;BME280;32536;47.128;8.746;2022-08-21T00:07:50;91916.03;;;19.80;58.38
46778;BME280;32536;47.128;8.746;2022-08-21T00:10:18;91912.22;;;19.77;58.41
46778;BME280;32536;47.128;8.746;2022-08-21T00:12:45;91911.94;;;19.75;58.40
46778;BME280;32536;47.128;8.746;2022-08-21T00:15:17;91915.56;;;19.72;58.46
46778;BME280;32536;47.128;8.746;2022-08-21T00:17:48;91906.06;;;19.67;58.60
46778;BME280;32536;47.128;8.746;2022-08-21T00:20:16;91910.91;;;19.63;58.61
46778;BME280;32536;47.128;8.746;2022-08-21T00:22:44;91903.22;;;19.62;58.54
46778;BME280;32536;47.128;8.746;2022-08-21T00:25:13;91906.38;;;19.60;58.67
46778;BME280;32536;47.128;8.746;2022-08-21T00:28:05;91900.03;;;19.54;57.78
46778;BME280;32536;47.128;8.746;2022-08-21T00:30:34;91900.97;;;19.51;58.73
46778;BME280;32536;47.128;8.746;2022-08-21T00:33:02;91902.91;;;19.50;58.80
46778;BME280;32536;47.128;8.746;2022-08-21T00:35:34;91897.03;;;19.52;58.66
46778;BME280;32536;47.128;8.746;2022-08-21T00:38:03;91902.47;;;19.52;58.92
46778;BME280;32536;47.128;8.746;2022-08-21T00:40:47;91902.16;;;19.50;58.78
46778;BME280;32536;47.128;8.746;2022-08-21T00:43:22;91896.41;;;19.48;58.82
46778;BME280;32536;47.128;8.746;2022-08-21T00:45:51;91891.91;;;19.45;59.30
46778;BME280;32536;47.128;8.746;2022-08-21T00:48:20;91896.56;;;19.44;59.37
46778;BME280;32536;47.128;8.746;2022-08-21T00:50:57;91890.41;;;19.44;58.61
46778;BME280;32536;47.128;8.746;2022-08-21T00:53:31;91892.97;;;19.47;58.92
46778;BME280;32536;47.128;8.746;2022-08-21T00:56:01;91896.41;;;19.48;58.50
46778;BME280;32536;47.128;8.746;2022-08-21T00:58:29;91898.88;;;19.46;58.34
46778;BME280;32536;47.128;8.746;2022-08-21T01:00:59;91889.34;;;19.41;58.41
46778;BME280;32536;47.128;8.746;2022-08-21T01:03:28;91900.38;;;19.38;58.63
46778;BME280;32536;47.128;8.746;2022-08-21T01:05:55;91893.56;;;19.33;58.79
46778;BME280;32536;47.128;8.746;2022-08-21T01:08:22;91886.78;;;19.28;58.85
46778;BME280;32536;47.128;8.746;2022-08-21T01:10:51;91883.78;;;19.26;58.78
46778;BME280;32536;47.128;8.746;2022-08-21T01:13:20;91888.59;;;19.22;58.32
46778;BME280;32536;47.128;8.746;2022-08-21T01:15:51;91890.25;;;19.19;58.68
46778;BME280;32536;47.128;8.746;2022-08-21T01:18:21;91886.03;;;19.18;58.65
46778;BME280;32536;47.128;8.746;2022-08-21T01:23:36;91883.31;;;19.18;58.27
46778;BME280;32536;47.128;8.746;2022-08-21T01:26:04;91887.22;;;19.17;58.16
46778;BME280;32536;47.128;8.746;2022-08-21T01:28:35;91878.81;;;19.15;58.03
46778;BME280;32536;47.128;8.746;2022-08-21T01:31:06;91871.72;;;19.18;58.21
46778;BME280;32536;47.128;8.746;2022-08-21T01:33:34;91866.28;;;19.18;58.23
46778;BME280;32536;47.128;8.746;2022-08-21T01:36:01;91873.38;;;19.15;58.10
46778;BME280;32536;47.128;8.746;2022-08-21T01:38:28;91862.50;;;19.15;58.09
46778;BME280;32536;47.128;8.746;2022-08-21T01:40:55;91861.75;;;19.15;58.22
46778;BME280;32536;47.128;8.746;2022-08-21T01:43:22;91863.25;;;19.16;58.33
46778;BME280;32536;47.128;8.746;2022-08-21T01:45:49;91858.13;;;19.18;58.22
46778;BME280;32536;47.128;8.746;2022-08-21T01:48:17;91861.59;;;19.18;58.53
46778;BME280;32536;47.128;8.746;2022-08-21T01:50:43;91850.44;;;19.16;58.63
46778;BME280;32536;47.128;8.746;2022-08-21T01:53:10;91863.25;;;19.16;58.59
46778;BME280;32536;47.128;8.746;2022-08-21T01:55:37;91856.31;;;19.15;58.65
46778;BME280;32536;47.128;8.746;2022-08-21T01:58:04;91849.38;;;19.14;58.81
46778;BME280;32536;47.128;8.746;2022-08-21T02:00:31;91852.09;;;19.14;58.68
46778;BME280;32536;47.128;8.746;2022-08-21T02:02:58;91852.09;;;19.14;58.48
46778;BME280;32536;47.128;8.746;2022-08-21T02:05:25;91847.13;;;19.12;58.75
46778;BME280;32536;47.128;8.746;2022-08-21T02:07:53;91846.06;;;19.10;58.71
46778;BME280;32536;47.128;8.746;2022-08-21T02:10:27;91842.28;;;19.07;58.86
46778;BME280;32536;47.128;8.746;2022-08-21T02:12:55;91839.44;;;19.11;59.15
46778;BME280;32536;47.128;8.746;2022-08-21T02:15:23;91831.59;;;19.13;58.98
46778;BME280;32536;47.128;8.746;2022-08-21T02:17:53;91830.66;;;19.16;58.84
46778;BME280;32536;47.128;8.746;2022-08-21T02:20:34;91822.22;;;19.14;58.48
46778;BME280;32536;47.128;8.746;2022-08-21T02:23:04;91818.28;;;19.15;58.95
46778;BME280;32536;47.128;8.746;2022-08-21T02:25:32;91823.44;;;19.13;59.09
46778;BME280;32536;47.128;8.746;2022-08-21T02:28:14;91822.81;;;19.09;58.78
46778;BME280;32536;47.128;8.746;2022-08-21T02:30:44;91822.53;;;19.07;59.02
46778;BME280;32536;47.128;8.746;2022-08-21T02:33:13;91816.03;;;19.04;59.39
46778;BME280;32536;47.128;8.746;2022-08-21T02:35:42;91812.88;;;19.06;59.25
46778;BME280;32536;47.128;8.746;2022-08-21T02:38:16;91810.03;;;19.09;59.49
46778;BME280;32536;47.128;8.746;2022-08-21T02:40:46;91806.06;;;19.10;59.29
46778;BME280;32536;47.128;8.746;2022-08-21T02:43:14;91810.75;;;19.10;59.26
46778;BME280;32536;47.128;8.746;2022-08-21T02:45:42;91802.78;;;19.06;59.43
46778;BME280;32536;47.128;8.746;2022-08-21T02:48:13;91806.53;;;19.09;59.34
46778;BME280;32536;47.128;8.746;2022-08-21T02:50:45;91805.78;;;19.08;58.89
46778;BME280;32536;47.128;8.746;2022-08-21T02:53:15;91813.63;;;19.06;59.05
46778;BME280;32536;47.128;8.746;2022-08-21T02:55:46;91810.31;;;19.02;58.72
46778;BME280;32536;47.128;8.746;2022-08-21T02:58:17;91811.22;;;18.99;58.71
46778;BME280;32536;47.128;8.746;2022-08-21T03:00:47;91807.31;;;19.00;58.64
46778;BME280;32536;47.128;8.746;2022-08-21T03:03:15;91810.91;;;18.97;58.56
46778;BME280;32536;47.128;8.746;2022-08-21T03:05:43;91805.34;;;18.91;58.30
46778;BME280;32536;47.128;8.746;2022-08-21T03:08:12;91798.06;;;18.88;58.42
46778;BME280;32536;47.128;8.746;2022-08-21T03:10:45;91802.44;;;18.85;58.15
46778;BME280;32536;47.128;8.746;2022-08-21T03:13:15;91798.84;;;18.88;58.06
46778;BME280;32536;47.128;8.746;2022-08-21T03:15:44;91791.59;;;18.85;57.84
46778;BME280;32536;47.128;8.746;2022-08-21T03:18:11;91792.78;;;18.84;57.90
46778;BME280;32536;47.128;8.746;2022-08-21T03:20:40;91788.56;;;18.83;57.60
46778;BME280;32536;47.128;8.746;2022-08-21T03:23:09;91784.38;;;18.82;57.71
46778;BME280;32536;47.128;8.746;2022-08-21T03:25:36;91791.75;;;18.82;57.63
46778;BME280;32536;47.128;8.746;2022-08-21T03:28:19;91786.19;;;18.76;57.08
46778;BME280;32536;47.128;8.746;2022-08-21T03:30:49;91789.34;;;18.75;57.71
46778;BME280;32536;47.128;8.746;2022-08-21T03:33:17;91791.75;;;18.72;57.74
46778;BME280;32536;47.128;8.746;2022-08-21T03:36:04;91793.72;;;18.63;58.03
46778;BME280;32536;47.128;8.746;2022-08-21T03:38:34;91798.22;;;18.56;58.41
46778;BME280;32536;47.128;8.746;2022-08-21T03:41:03;91789.16;;;18.50;58.61
46778;BME280;32536;47.128;8.746;2022-08-21T03:43:31;91791.44;;;18.52;58.67
46778;BME280;32536;47.128;8.746;2022-08-21T03:46:00;91795.34;;;18.51;58.67
46778;BME280;32536;47.128;8.746;2022-08-21T03:48:29;91800.94;;;18.47;58.77
46778;BME280;32536;47.128;8.746;2022-08-21T03:50:56;91794.00;;;18.46;59.20
46778;BME280;32536;47.128;8.746;2022-08-21T03:53:23;91798.69;;;18.46;58.96
46778;BME280;32536;47.128;8.746;2022-08-21T03:55:51;91798.97;;;18.48;58.77
46778;BME280;32536;47.128;8.746;2022-08-21T03:58:22;91804.56;;;18.53;58.67
46778;BME280;32536;47.128;8.746;2022-08-21T04:00:53;91808.63;;;18.58;58.55
46778;BME280;32536;47.128;8.746;2022-08-21T04:03:21;91806.50;;;18.62;58.52
46778;BME280;32536;47.128;8.746;2022-08-21T04:05:48;91814.38;;;18.69;58.30
46778;BME280;32536;47.128;8.746;2022-08-21T04:08:16;91809.53;;;18.73;58.13
46778;BME280;32536;47.128;8.746;2022-08-21T04:10:47;91812.56;;;18.76;57.96
46778;BME280;32536;47.128;8.746;2022-08-21T04:13:16;91809.69;;;18.79;57.92
46778;BME280;32536;47.128;8.746;2022-08-21T04:15:42;91814.06;;;18.77;58.14
46778;BME280;32536;47.128;8.746;2022-08-21T04:18:10;91807.59;;;18.74;58.13
46778;BME280;32536;47.128;8.746;2022-08-21T04:20:38;91815.72;;;18.74;57.98
46778;BME280;32536;47.128;8.746;2022-08-21T04:23:06;91811.81;;;18.75;58.08
46778;BME280;32536;47.128;8.746;2022-08-21T04:25:34;91812.38;;;18.70;57.87
46778;BME280;32536;47.128;8.746;2022-08-21T04:28:21;91821.28;;;18.61;57.58
46778;BME280;32536;47.128;8.746;2022-08-21T04:30:50;91824.44;;;18.60;58.23
46778;BME280;32536;47.128;8.746;2022-08-21T04:33:18;91822.81;;;18.53;58.38
46778;BME280;32536;47.128;8.746;2022-08-21T04:35:45;91817.94;;;18.48;58.25
46778;BME280;32536;47.128;8.746;2022-08-21T04:38:13;91821.88;;;18.47;58.44
46778;BME280;32536;47.128;8.746;2022-08-21T04:40:39;91827.28;;;18.47;58.33
46778;BME280;32536;47.128;8.746;2022-08-21T04:43:09;91828.50;;;18.46;58.31
46778;BME280;32536;47.128;8.746;2022-08-21T04:45:39;91834.69;;;18.46;58.25
46778;BME280;32536;47.128;8.746;2022-08-21T04:48:11;91836.94;;;18.48;58.07
46778;BME280;32536;47.128;8.746;2022-08-21T04:50:40;91835.59;;;18.52;57.96
46778;BME280;32536;47.128;8.746;2022-08-21T04:53:30;91834.41;;;18.53;57.18
46778;BME280;32536;47.128;8.746;2022-08-21T04:56:06;91833.19;;;18.54;57.51
46778;BME280;32536;47.128;8.746;2022-08-21T04:58:38;91834.72;;;18.55;57.47
46778;BME280;32536;47.128;8.746;2022-08-21T05:01:08;91829.84;;;18.50;57.69
46778;BME280;32536;47.128;8.746;2022-08-21T05:03:39;91839.78;;;18.44;57.90
46778;BME280;32536;47.128;8.746;2022-08-21T05:06:09;91834.22;;;18.38;58.11
46778;BME280;32536;47.128;8.746;2022-08-21T05:08:38;91839.78;;;18.35;58.25
46778;BME280;32536;47.128;8.746;2022-08-21T05:11:06;91833.44;;;18.29;58.36
46778;BME280;32536;47.128;8.746;2022-08-21T05:13:33;91828.31;;;18.21;58.03
46778;BME280;32536;47.128;8.746;2022-08-21T05:16:00;91830.53;;;18.14;57.81
46778;BME280;32536;47.128;8.746;2022-08-21T05:18:27;91835.94;;;18.04;57.95
46778;BME280;32536;47.128;8.746;2022-08-21T05:20:54;91835.94;;;18.04;57.93
46778;BME280;32536;47.128;8.746;2022-08-21T05:23:21;91822.84;;;18.03;57.73
46778;BME280;32536;47.128;8.746;2022-08-21T05:25:48;91828.25;;;18.03;57.80
46778;BME280;32536;47.128;8.746;2022-08-21T05:28:23;91830.19;;;18.02;57.77
46778;BME280;32536;47.128;8.746;2022-08-21T05:30:51;91827.03;;;18.04;57.88
46778;BME280;32536;47.128;8.746;2022-08-21T05:33:18;91826.75;;;18.02;57.92
46778;BME280;32536;47.128;8.746;2022-08-21T05:35:45;91825.81;;;17.96;57.77
46778;BME280;32536;47.128;8.746;2022-08-21T05:38:14;91830.91;;;17.93;58.07
46778;BME280;32536;47.128;8.746;2022-08-21T05:40:41;91823.22;;;17.92;58.11
46778;BME280;32536;47.128;8.746;2022-08-21T05:43:08;91822.34;;;17.95;58.08
46778;BME280;32536;47.128;8.746;2022-08-21T05:45:35;91820.69;;;17.98;58.09
46778;BME280;32536;47.128;8.746;2022-08-21T05:48:06;91817.97;;;17.98;58.04
46778;BME280;32536;47.128;8.746;2022-08-21T05:50:37;91812.88;;;18.00;58.15
46778;BME280;32536;47.128;8.746;2022-08-21T05:53:05;91809.84;;;17.98;58.31
46778;BME280;32536;47.128;8.746;2022-08-21T05:55:32;91814.22;;;17.95;58.26
46778;BME280;32536;47.128;8.746;2022-08-21T05:58:00;91816.56;;;17.93;58.28
46778;BME280;32536;47.128;8.746;2022-08-21T06:00:26;91814.63;;;17.93;58.48
46778;BME280;32536;47.128;8.746;2022-08-21T06:02:53;91813.47;;;17.95;58.32
46778;BME280;32536;47.128;8.746;2022-08-21T06:05:20;91813.63;;;18.00;58.41
46778;BME280;32536;47.128;8.746;2022-08-21T06:07:48;91807.19;;;18.07;58.45
46778;BME280;32536;47.128;8.746;2022-08-21T06:10:14;91806.91;;;18.14;58.64
46778;BME280;32536;47.128;8.746;2022-08-21T06:12:41;91805.84;;;18.21;58.54
46778;BME280;32536;47.128;8.746;2022-08-21T06:15:08;91808.00;;;18.26;58.77
46778;BME280;32536;47.128;8.746;2022-08-21T06:17:35;91801.50;;;18.33;58.82
46778;BME280;32536;47.128;8.746;2022-08-21T06:20:03;91810.56;;;18.39;58.80
46778;BME280;32536;47.128;8.746;2022-08-21T06:22:31;91805.59;;;18.47;58.81
46778;BME280;32536;47.128;8.746;2022-08-21T06:24:57;91801.69;;;18.48;58.80
46778;BME280;32536;47.128;8.746;2022-08-21T06:27:24;91801.69;;;18.48;58.89
46778;BME280;32536;47.128;8.746;2022-08-21T06:29:51;91804.09;;;18.46;58.97
46778;BME280;32536;47.128;8.746;2022-08-21T06:32:17;91801.97;;;18.40;59.12
46778;BME280;32536;47.128;8.746;2022-08-21T06:34:44;91791.88;;;18.41;59.17
46778;BME280;32536;47.128;8.746;2022-08-21T06:37:11;91798.81;;;18.42;59.31
46778;BME280;32536;47.128;8.746;2022-08-21T06:39:38;91793.25;;;18.46;59.37
46778;BME280;32536;47.128;8.746;2022-08-21T06:42:05;91797.16;;;18.54;59.47
46778;BME280;32536;47.128;8.746;2022-08-21T06:44:32;91796.44;;;18.63;59.41
46778;BME280;32536;47.128;8.746;2022-08-21T06:46:58;91789.78;;;18.73;59.39
46778;BME280;32536;47.128;8.746;2022-08-21T06:49:25;91791.28;;;18.83;59.41
46778;BME280;32536;47.128;8.746;2022-08-21T06:51:52;91789.66;;;18.95;59.29
46778;BME280;32536;47.128;8.746;2022-08-21T06:54:19;91793.44;;;19.07;59.47
46778;BME280;32536;47.128;8.746;2022-08-21T06:56:46;91790.25;;;19.18;59.38
46778;BME280;32536;47.128;8.746;2022-08-21T06:59:13;91794.00;;;19.30;59.24
46778;BME280;32536;47.128;8.746;2022-08-21T07:01:40;91796.38;;;19.37;59.38
46778;BME280;32536;47.128;8.746;2022-08-21T07:04:07;91801.22;;;19.42;59.55
46778;BME280;32536;47.128;8.746;2022-08-21T07:06:33;91794.53;;;19.52;59.54
46778;BME280;32536;47.128;8.746;2022-08-21T07:09:00;91802.22;;;19.63;59.46
46778;BME280;32536;47.128;8.746;2022-08-21T07:11:28;91792.06;;;19.73;59.43
46778;BME280;32536;47.128;8.746;2022-08-21T07:13:55;91797.91;;;19.81;59.54
46778;BME280;32536;47.128;8.746;2022-08-21T07:16:23;91797.00;;;19.93;59.43
46778;BME280;32536;47.128;8.746;2022-08-21T07:18:50;91793.75;;;20.04;59.43
46778;BME280;32536;47.128;8.746;2022-08-21T07:21:17;91804.59;;;20.13;59.34
46778;BME280;32536;47.128;8.746;2022-08-21T07:23:47;91801.25;;;20.19;59.19
46778;BME280;32536;47.128;8.746;2022-08-21T07:26:17;91801.69;;;20.26;59.25
46778;BME280;32536;47.128;8.746;2022-08-21T07:28:47;91802.53;;;20.33;59.43
46778;BME280;32536;47.128;8.746;2022-08-21T07:31:22;91805.66;;;20.40;59.31
46778;BME280;32536;47.128;8.746;2022-08-21T07:33:50;91794.59;;;20.44;59.47
46778;BME280;32536;47.128;8.746;2022-08-21T07:36:18;91798.84;;;20.45;59.50
46778;BME280;32536;47.128;8.746;2022-08-21T07:38:45;91791.53;;;20.51;59.71
46778;BME280;32536;47.128;8.746;2022-08-21T07:41:19;91800.09;;;20.59;59.46
46778;BME280;32536;47.128;8.746;2022-08-21T07:43:48;91793.28;;;20.63;59.47
46778;BME280;32536;47.128;8.746;2022-08-21T07:46:15;91788.56;;;20.64;59.43
46778;BME280;32536;47.128;8.746;2022-08-21T07:48:42;91793.66;;;20.71;59.58
46778;BME280;32536;47.128;8.746;2022-08-21T07:51:11;91805.63;;;20.74;59.61
46778;BME280;32536;47.128;8.746;2022-08-21T07:53:39;91789.41;;;20.79;59.52
46778;BME280;32536;47.128;8.746;2022-08-21T07:56:07;91802.84;;;20.83;59.38
46778;BME280;32536;47.128;8.746;2022-08-21T07:58:36;91793.28;;;20.88;59.28
46778;BME280;32536;47.128;8.746;2022-08-21T08:01:05;91794.97;;;20.85;59.39
46778;BME280;32536;47.128;8.746;2022-08-21T08:03:32;91797.69;;;20.85;59.26
46778;BME280;32536;47.128;8.746;2022-08-21T08:05:59;91798.59;;;20.82;59.28
46778;BME280;32536;47.128;8.746;2022-08-21T08:08:26;91802.19;;;20.88;59.29
46778;BME280;32536;47.128;8.746;2022-08-21T08:10:56;91795.34;;;20.93;59.08
46778;BME280;32536;47.128;8.746;2022-08-21T08:13:24;91791.78;;;21.02;59.52
46778;BME280;32536;47.128;8.746;2022-08-21T08:15:51;91794.31;;;21.05;59.27
46778;BME280;32536;47.128;8.746;2022-08-21T08:18:18;91796.88;;;21.09;59.39
46778;BME280;32536;47.128;8.746;2022-08-21T08:20:45;91792.28;;;21.15;59.35
46778;BME280;32536;47.128;8.746;2022-08-21T08:23:13;91789.94;;;21.23;59.35
46778;BME280;32536;47.128;8.746;2022-08-21T08:25:40;91798.19;;;21.28;59.33
46778;BME280;32536;47.128;8.746;2022-08-21T08:28:35;91790.13;;;21.34;58.72
46778;BME280;32536;47.128;8.746;2022-08-21T08:31:02;91787.78;;;21.42;58.96
46778;BME280;32536;47.128;8.746;2022-08-21T08:33:29;91784.59;;;21.43;59.30
46778;BME280;32536;47.128;8.746;2022-08-21T08:35:56;91788.44;;;21.52;59.85
46778;BME280;32536;47.128;8.746;2022-08-21T08:38:25;91782.06;;;21.70;59.23
46778;BME280;32536;47.128;8.746;2022-08-21T08:41:02;91788.13;;;21.95;59.64
46778;BME280;32536;47.128;8.746;2022-08-21T08:43:32;91780.19;;;22.12;58.71
46778;BME280;32536;47.128;8.746;2022-08-21T08:46:03;91788.75;;;22.19;57.80
46778;BME280;32536;47.128;8.746;2022-08-21T08:48:46;91792.31;;;22.26;58.12
46778;BME280;32536;47.128;8.746;2022-08-21T08:51:24;91790.06;;;22.24;57.84
46778;BME280;32536;47.128;8.746;2022-08-21T08:54:04;91793.94;;;22.17;57.15
46778;BME280;32536;47.128;8.746;2022-08-21T08:56:38;91793.38;;;22.13;57.77
46778;BME280;32536;47.128;8.746;2022-08-21T08:59:15;91787.84;;;22.07;57.22
46778;BME280;32536;47.128;8.746;2022-08-21T09:01:45;91784.94;;;21.96;57.55
46778;BME280;32536;47.128;8.746;2022-08-21T09:04:12;91785.88;;;21.93;57.71
46778;BME280;32536;47.128;8.746;2022-08-21T09:21:09;91786.38;;;21.91;57.46
46778;BME280;32536;47.128;8.746;2022-08-21T09:23:49;91776.19;;;21.92;57.56
46778;BME280;32536;47.128;8.746;2022-08-21T09:26:40;91781.41;;;21.90;58.06
46778;BME280;32536;47.128;8.746;2022-08-21T09:29:11;91782.91;;;21.91;58.10
46778;BME280;32536;47.128;8.746;2022-08-21T09:31:38;91773.47;;;21.92;57.89
46778;BME280;32536;47.128;8.746;2022-08-21T09:34:08;91769.53;;;21.93;57.55
46778;BME280;32536;47.128;8.746;2022-08-21T09:36:45;91768.59;;;21.96;57.81
46778;BME280;32536;47.128;8.746;2022-08-21T09:39:26;91767.81;;;21.96;57.93
46778;BME280;32536;47.128;8.746;2022-08-21T09:42:00;91767.38;;;21.97;57.75
46778;BME280;32536;47.128;8.746;2022-08-21T09:44:32;91763.13;;;21.96;57.83
46778;BME280;32536;47.128;8.746;2022-08-21T09:47:07;91762.09;;;21.94;58.05
46778;BME280;32536;47.128;8.746;2022-08-21T09:49:38;91761.34;;;21.93;58.05
46778;BME280;32536;47.128;8.746;2022-08-21T09:52:17;91756.91;;;21.96;57.74
46778;BME280;32536;47.128;8.746;2022-08-21T09:54:51;91755.78;;;22.02;57.94
46778;BME280;32536;47.128;8.746;2022-08-21T09:57:28;91760.56;;;22.07;57.93
46778;BME280;32536;47.128;8.746;2022-08-21T10:00:18;91755.78;;;22.02;57.62
46778;BME280;32536;47.128;8.746;2022-08-21T10:02:51;91753.31;;;22.04;58.05
46778;BME280;32536;47.128;8.746;2022-08-21T10:05:22;91752.56;;;22.04;57.55
46778;BME280;32536;47.128;8.746;2022-08-21T10:07:51;91752.28;;;22.02;57.87
46778;BME280;32536;47.128;8.746;2022-08-21T10:10:25;91754.06;;;22.05;57.86
46778;BME280;32536;47.128;8.746;2022-08-21T10:13:14;91751.91;;;22.09;57.49
46778;BME280;32536;47.128;8.746;2022-08-21T10:34:15;91739.69;;;22.40;55.48
46778;BME280;32536;47.128;8.746;2022-08-21T10:48:34;91745.16;;;22.40;57.01
46778;BME280;32536;47.128;8.746;2022-08-21T10:51:12;91737.97;;;22.43;56.72
46778;BME280;32536;47.128;8.746;2022-08-21T10:54:05;91740.75;;;22.48;57.07
46778;BME280;32536;47.128;8.746;2022-08-21T10:56:47;91728.69;;;22.55;57.15
46778;BME280;32536;47.128;8.746;2022-08-21T11:01:54;91730.31;;;22.67;56.44
46778;BME280;32536;47.128;8.746;2022-08-21T11:04:33;91729.09;;;22.68;56.71
46778;BME280;32536;47.128;8.746;2022-08-21T11:07:30;91728.75;;;22.61;56.65
46778;BME280;32536;47.128;8.746;2022-08-21T11:10:09;91724.25;;;22.58;57.03
46778;BME280;32536;47.128;8.746;2022-08-21T11:13:11;91717.34;;;22.62;56.48
46778;BME280;32536;47.128;8.746;2022-08-21T11:16:04;91712.72;;;22.68;56.54
46778;BME280;32536;47.128;8.746;2022-08-21T11:18:42;91716.94;;;22.69;56.66
46778;BME280;32536;47.128;8.746;2022-08-21T11:21:39;91715.44;;;22.68;55.56
46778;BME280;32536;47.128;8.746;2022-08-21T11:24:42;91714.25;;;22.75;56.84
46778;BME280;32536;47.128;8.746;2022-08-21T11:27:21;91712.28;;;22.76;56.28
46778;BME280;32536;47.128;8.746;2022-08-21T11:30:09;91712.09;;;22.79;56.38
46778;BME280;32536;47.128;8.746;2022-08-21T11:35:32;91697.63;;;22.73;56.39
46778;BME280;32536;47.128;8.746;2022-08-21T11:38:33;91701.66;;;22.78;56.06
46778;BME280;32536;47.128;8.746;2022-08-21T11:44:18;91694.09;;;22.93;55.88
46778;BME280;32536;47.128;8.746;2022-08-21T11:50:16;91692.75;;;23.09;55.89
46778;BME280;32536;47.128;8.746;2022-08-21T11:52:52;91691.00;;;23.12;55.80
46778;BME280;32536;47.128;8.746;2022-08-21T11:55:50;91686.81;;;23.11;55.71
46778;BME280;32536;47.128;8.746;2022-08-21T11:58:27;91685.31;;;23.10;56.01
46778;BME280;32536;47.128;8.746;2022-08-21T12:01:17;91685.56;;;23.12;55.71
46778;BME280;32536;47.128;8.746;2022-08-21T12:04:29;91690.56;;;23.13;55.29
46778;BME280;32536;47.128;8.746;2022-08-21T12:07:17;91684.53;;;23.09;55.42
46778;BME280;32536;47.128;8.746;2022-08-21T12:10:17;91672.88;;;23.09;55.69
46778;BME280;32536;47.128;8.746;2022-08-21T12:12:48;91685.56;;;23.12;55.78
46778;BME280;32536;47.128;8.746;2022-08-21T12:18:03;91677.13;;;23.15;55.68
46778;BME280;32536;47.128;8.746;2022-08-21T12:27:00;91677.94;;;23.48;53.70
46778;BME280;32536;47.128;8.746;2022-08-21T12:29:49;91673.25;;;23.54;54.94
46778;BME280;32536;47.128;8.746;2022-08-21T12:32:54;91675.97;;;23.54;55.16
46778;BME280;32536;47.128;8.746;2022-08-21T12:35:25;91671.28;;;23.55;55.31
46778;BME280;32536;47.128;8.746;2022-08-21T12:41:01;91669.28;;;23.55;54.23
46778;BME280;32536;47.128;8.746;2022-08-21T12:43:37;91657.28;;;23.47;53.57
46778;BME280;32536;47.128;8.746;2022-08-21T12:46:21;91662.25;;;23.48;53.41
46778;BME280;32536;47.128;8.746;2022-08-21T12:49:19;91665.59;;;23.58;53.55
46778;BME280;32536;47.128;8.746;2022-08-21T12:51:52;91668.38;;;23.70;54.69
46778;BME280;32536;47.128;8.746;2022-08-21T12:54:32;91663.94;;;23.72;54.63
46778;BME280;32536;47.128;8.746;2022-08-21T12:57:06;91658.97;;;23.76;54.36
46778;BME280;32536;47.128;8.746;2022-08-21T12:59:39;91665.97;;;23.83;53.82
46778;BME280;32536;47.128;8.746;2022-08-21T13:02:15;91665.22;;;23.82;53.24
46778;BME280;32536;47.128;8.746;2022-08-21T13:04:45;91665.53;;;23.90;54.47
46778;BME280;32536;47.128;8.746;2022-08-21T13:07:16;91665.84;;;23.98;53.89
46778;BME280;32536;47.128;8.746;2022-08-21T13:10:03;91668.38;;;24.07;54.07
46778;BME280;32536;47.128;8.746;2022-08-21T13:12:41;91669.41;;;24.16;54.09
46778;BME280;32536;47.128;8.746;2022-08-21T13:15:09;91672.13;;;24.16;54.09
46778;BME280;32536;47.128;8.746;2022-08-21T13:17:45;91674.13;;;24.15;53.77
46778;BME280;32536;47.128;8.746;2022-08-21T13:20:27;91679.09;;;24.17;53.44
46778;BME280;32536;47.128;8.746;2022-08-21T13:23:28;91675.88;;;24.12;52.94
46778;BME280;32536;47.128;8.746;2022-08-21T13:25:56;91671.44;;;24.21;53.89
46778;BME280;32536;47.128;8.746;2022-08-21T13:28:54;91679.38;;;24.19;53.09
46778;BME280;32536;47.128;8.746;2022-08-21T13:31:38;91678.09;;;24.08;53.18
46778;BME280;32536;47.128;8.746;2022-08-21T13:34:10;91672.63;;;24.08;53.17
46778;BME280;32536;47.128;8.746;2022-08-21T13:36:40;91667.91;;;24.14;52.87
46778;BME280;32536;47.128;8.746;2022-08-21T13:39:10;91672.66;;;24.25;53.31
46778;BME280;32536;47.128;8.746;2022-08-21T13:41:44;91668.22;;;24.34;52.67
46778;BME280;32536;47.128;8.746;2022-08-21T13:44:21;91672.28;;;24.44;52.00
46778;BME280;32536;47.128;8.746;2022-08-21T13:47:10;91666.56;;;24.53;49.96
46778;BME280;32536;47.128;8.746;2022-08-21T13:49:44;91672.56;;;24.63;50.93
46778;BME280;32536;47.128;8.746;2022-08-21T13:52:21;91669.41;;;24.76;50.51
46778;BME280;32536;47.128;8.746;2022-08-21T13:55:00;91668.41;;;24.85;48.84
46778;BME280;32536;47.128;8.746;2022-08-21T13:57:34;91668.69;;;24.98;51.71
46778;BME280;32536;47.128;8.746;2022-08-21T14:00:15;91667.97;;;25.09;50.64
46778;BME280;32536;47.128;8.746;2022-08-21T14:02:45;91670.94;;;25.17;48.22
46778;BME280;32536;47.128;8.746;2022-08-21T14:05:20;91669.72;;;25.23;50.84
46778;BME280;32536;47.128;8.746;2022-08-21T14:07:50;91663.75;;;25.31;51.24
46778;BME280;32536;47.128;8.746;2022-08-21T14:10:21;91665.72;;;25.24;51.38
46778;BME280;32536;47.128;8.746;2022-08-21T14:12:52;91658.75;;;25.18;50.65
46778;BME280;32536;47.128;8.746;2022-08-21T14:15:24;91666.47;;;25.19;50.95
46778;BME280;32536;47.128;8.746;2022-08-21T14:17:55;91669.97;;;25.25;51.46
46778;BME280;32536;47.128;8.746;2022-08-21T14:20:36;91672.69;;;25.31;51.62
46778;BME280;32536;47.128;8.746;2022-08-21T14:23:03;91662.72;;;25.34;51.50
46778;BME280;32536;47.128;8.746;2022-08-21T14:25:42;91665.00;;;25.35;49.95
46778;BME280;32536;47.128;8.746;2022-08-21T14:31:29;91669.72;;;25.35;50.45
46778;BME280;32536;47.128;8.746;2022-08-21T14:33:59;91661.97;;;25.28;50.63
46778;BME280;32536;47.128;8.746;2022-08-21T14:36:26;91661.75;;;25.20;50.94
46778;BME280;32536;47.128;8.746;2022-08-21T14:38:54;91659.00;;;25.20;50.92
46778;BME280;32536;47.128;8.746;2022-08-21T14:41:23;91661.75;;;25.20;50.87